Latest Weather Observations for Outer Harbor (Black Pole)

IDS60801

Issued at 12:31 am CST Tuesday 28 April 2015 (issued every 30 minutes, with the page automatically refreshed every 10 minutes)

About weather observations | Map of weather stations | Latest weather observations for SA | Other Formats
Station Details ID: 023052 Name: BLACK POLE Lat: -34.73 Lon: 138.47 Height: 8.0 m
Data from the previous 72 hours. | See also: Recent months for locations in South Australia
Date/Time
CST
Temp
°C
App
Temp
°C
Dew
Point
Rel
Hum
%
Delta-T
°C
Wind Press
QNH
hPa
Press
MSL
hPa
Rain
since 9 am
mm
Dir
 
Spd
km/h
Gust
km/h
Spd
kts
Gust
kts
28/12:30am - - - - - SSE 13 17 7 9 - - -
28/12:00am - - - - - SSE 13 17 7 9 - - -
 
Date/Time
CST
Temp
°C
App
Temp
°C
Dew
Point
Rel
Hum
%
Delta-T
°C
Wind Press
QNH
hPa
Press
MSL
hPa
Rain
since 9 am
mm
Dir
 
Spd
km/h
Gust
km/h
Spd
kts
Gust
kts
27/11:30pm - - - - - SSE 13 15 7 8 - - -
27/11:00pm - - - - - SSE 13 17 7 9 - - -
27/10:30pm - - - - - SSE 19 22 10 12 - - -
27/10:00pm - - - - - SSE 19 22 10 12 - - -
27/09:30pm - - - - - S 20 26 11 14 - - -
27/09:00pm - - - - - SSE 19 20 10 11 - - -
27/08:30pm - - - - - SSE 17 20 9 11 - - -
27/08:00pm - - - - - SSE 15 19 8 10 - - -
27/07:30pm - - - - - S 19 22 10 12 - - -
27/07:00pm - - - - - S 22 26 12 14 - - -
27/06:30pm - - - - - S 32 35 17 19 - - -
27/06:00pm - - - - - SSW 28 35 15 19 - - -
27/05:30pm - - - - - SW 30 35 16 19 - - -
27/05:00pm - - - - - SSW 24 32 13 17 - - -
27/04:30pm - - - - - SSW 22 28 12 15 - - -
27/04:00pm - - - - - SW 17 20 9 11 - - -
27/03:30pm - - - - - SW 9 13 5 7 - - -
27/03:00pm - - - - - SW 7 9 4 5 - - -
27/02:30pm - - - - - SSW 33 43 18 23 - - -
27/02:11pm - - - - - SW 26 44 14 24 - - -
27/02:00pm - - - - - SW 17 22 9 12 - - -
27/01:30pm - - - - - SW 19 22 10 12 - - -
27/01:00pm - - - - - SW 20 26 11 14 - - -
27/12:30pm - - - - - SW 20 26 11 14 - - -
27/12:00pm - - - - - SW 15 19 8 10 - - -
27/11:30am - - - - - SSW 11 17 6 9 - - -
27/11:00am - - - - - SSE 19 22 10 12 - - -
27/10:30am - - - - - S 24 32 13 17 - - -
27/10:00am - - - - - NNE 4 7 2 4 - - -
27/09:30am - - - - - CALM 0 2 0 1 - - -
27/09:00am - - - - - SE 6 11 3 6 - - -
27/08:30am - - - - - SSE 9 13 5 7 - - -
27/08:00am - - - - - SSE 11 17 6 9 - - -
27/07:30am - - - - - SE 7 9 4 5 - - -
27/07:00am - - - - - SW 9 11 5 6 - - -
27/06:30am - - - - - SW 13 26 7 14 - - -
27/06:00am - - - - - SSW 20 33 11 18 - - -
27/05:30am - - - - - SSE 13 19 7 10 - - -
27/05:00am - - - - - S 7 11 4 6 - - -
27/04:30am - - - - - SE 11 15 6 8 - - -
27/04:00am - - - - - SSE 11 15 6 8 - - -
27/03:30am - - - - - SSE 15 17 8 9 - - -
27/03:00am - - - - - SSE 9 13 5 7 - - -
27/02:30am - - - - - S 11 13 6 7 - - -
27/02:00am - - - - - S 17 24 9 13 - - -
27/01:30am - - - - - SSE 9 13 5 7 - - -
27/01:00am - - - - - SSE 9 11 5 6 - - -
27/12:30am - - - - - SSE 7 11 4 6 - - -
27/12:00am - - - - - SSE 9 11 5 6 - - -
 
Date/Time
CST
Temp
°C
App
Temp
°C
Dew
Point
Rel
Hum
%
Delta-T
°C
Wind Press
QNH
hPa
Press
MSL
hPa
Rain
since 9 am
mm
Dir
 
Spd
km/h
Gust
km/h
Spd
kts
Gust
kts
26/11:30pm - - - - - SE 13 17 7 9 - - -
26/11:00pm - - - - - SE 15 17 8 9 - - -
26/10:30pm - - - - - SSE 17 19 9 10 - - -
26/10:00pm - - - - - SSE 22 28 12 15 - - -
26/09:30pm - - - - - SSW 26 32 14 17 - - -
26/09:00pm - - - - - S 15 22 8 12 - - -
26/08:30pm - - - - - S 13 17 7 9 - - -
26/08:00pm - - - - - S 17 22 9 12 - - -
26/07:30pm - - - - - SSW 17 22 9 12 - - -
26/07:00pm - - - - - SSW 22 26 12 14 - - -
26/06:30pm - - - - - SSW 26 32 14 17 - - -
26/06:00pm - - - - - SSW 20 26 11 14 - - -
26/05:30pm - - - - - S 19 24 10 13 - - -
26/05:00pm - - - - - SSW 24 30 13 16 - - -
26/04:30pm - - - - - S 32 37 17 20 - - -
26/04:00pm - - - - - SSW 30 35 16 19 - - -
26/03:30pm - - - - - SSW 30 35 16 19 - - -
26/03:00pm - - - - - SSW 30 35 16 19 - - -
26/02:30pm - - - - - SSW 33 43 18 23 - - -
26/02:00pm - - - - - SSW 33 39 18 21 - - -
26/01:30pm - - - - - SSW 30 39 16 21 - - -
26/01:00pm - - - - - SW 22 26 12 14 - - -
26/12:30pm - - - - - S 26 32 14 17 - - -
26/12:00pm - - - - - SSW 28 35 15 19 - - -
26/11:30am - - - - - SSW 26 30 14 16 - - -
26/11:00am - - - - - SSW 30 41 16 22 - - -
26/10:30am - - - - - SSW 20 26 11 14 - - -
26/10:00am - - - - - S 13 17 7 9 - - -
26/09:30am - - - - - S 13 17 7 9 - - -
26/09:00am - - - - - SSE 13 15 7 8 - - -
26/08:30am - - - - - SSE 13 17 7 9 - - -
26/08:00am - - - - - SSE 15 19 8 10 - - -
26/07:30am - - - - - SSE 22 26 12 14 - - -
26/07:00am - - - - - SSE 19 24 10 13 - - -
26/06:30am - - - - - SSE 17 20 9 11 - - -
26/06:00am - - - - - SSE 11 15 6 8 - - -
26/05:30am - - - - - SSE 15 19 8 10 - - -
26/05:00am - - - - - SSE 15 19 8 10 - - -
26/04:30am - - - - - SSE 15 19 8 10 - - -
26/04:00am - - - - - SSE 17 19 9 10 - - -
26/03:30am - - - - - SSE 13 15 7 8 - - -
26/03:00am - - - - - SE 15 19 8 10 - - -
26/02:30am - - - - - S 22 28 12 15 - - -
26/02:00am - - - - - SSW 22 37 12 20 - - -
26/01:30am - - - - - S 20 24 11 13 - - -
26/01:00am - - - - - S 22 30 12 16 - - -
26/12:30am - - - - - S 26 35 14 19 - - -
26/12:00am - - - - - SSW 28 33 15 18 - - -
 
Date/Time
CST
Temp
°C
App
Temp
°C
Dew
Point
Rel
Hum
%
Delta-T
°C
Wind Press
QNH
hPa
Press
MSL
hPa
Rain
since 9 am
mm
Dir
 
Spd
km/h
Gust
km/h
Spd
kts
Gust
kts
25/11:30pm - - - - - SSW 32 35 17 19 - - -
25/11:00pm - - - - - S 22 33 12 18 - - -
25/10:30pm - - - - - S 20 26 11 14 - - -
25/10:00pm - - - - - S 19 22 10 12 - - -
25/09:30pm - - - - - S 24 30 13 16 - - -
25/09:00pm - - - - - S 28 37 15 20 - - -
25/08:30pm - - - - - S 35 43 19 23 - - -
25/08:00pm - - - - - S 26 32 14 17 - - -
25/07:30pm - - - - - S 37 44 20 24 - - -
25/07:00pm - - - - - SSW 43 52 23 28 - - -
25/06:30pm - - - - - SSW 37 46 20 25 - - -
25/06:00pm - - - - - S 35 44 19 24 - - -
25/05:30pm - - - - - SSW 41 48 22 26 - - -
25/05:00pm - - - - - SSW 41 48 22 26 - - -
25/04:30pm - - - - - S 33 52 18 28 - - -
25/04:29pm - - - - - S 33 52 18 28 - - -
25/04:00pm - - - - - S 32 39 17 21 - - -
25/03:30pm - - - - - S 35 43 19 23 - - -
25/03:00pm - - - - - SSW 30 37 16 20 - - -
25/02:30pm - - - - - SW 37 43 20 23 - - -
25/02:00pm - - - - - SW 37 44 20 24 - - -
25/01:30pm - - - - - SW 35 44 19 24 - - -
25/01:00pm - - - - - SW 33 41 18 22 - - -
25/12:30pm - - - - - SW 26 37 14 20 - - -
25/12:00pm - - - - - SW 20 26 11 14 - - -
25/11:30am - - - - - SW 19 22 10 12 - - -
25/11:00am - - - - - SW 19 24 10 13 - - -
25/10:30am - - - - - SSW 20 26 11 14 - - -
25/10:00am - - - - - SSW 20 24 11 13 - - -
25/09:30am - - - - - S 19 28 10 15 - - -
25/09:00am - - - - - S 20 26 11 14 - - -
25/08:30am - - - - - S 22 28 12 15 - - -
25/08:00am - - - - - S 26 30 14 16 - - -
25/07:30am - - - - - S 32 37 17 20 - - -
25/07:00am - - - - - S 39 46 21 25 - - -
25/06:30am - - - - - S 43 52 23 28 - - -
25/06:00am - - - - - S 44 54 24 29 - - -
25/05:30am - - - - - S 35 46 19 25 - - -
25/05:00am - - - - - S 35 44 19 24 - - -
25/04:30am - - - - - S 43 48 23 26 - - -
25/04:00am - - - - - S 44 54 24 29 - - -
25/03:30am - - - - - SSW 44 54 24 29 - - -
25/03:00am - - - - - SSW 41 50 22 27 - - -
25/02:30am - - - - - SW 39 46 21 25 - - -
25/02:07am - - - - - SW 37 48 20 26 - - -
25/02:00am - - - - - WSW 35 43 19 23 - - -
25/01:30am - - - - - WSW 44 54 24 29 - - -
25/01:00am - - - - - WSW 46 54 25 29 - - -
25/12:44am - - - - - WNW 46 65 25 35 - - -

Other Formats:

Comma delimited format used in spreadsheet applications
http://www.bom.gov.au/fwo/IDS60801/IDS60801.95675.axf

JavaScript Object Notation format (JSON) in row-major order
http://www.bom.gov.au/fwo/IDS60801/IDS60801.95675.json